createdAt,value
2018-10-21T00:02:04.903Z,54.80
2018-10-21T00:04:33.232Z,54.10
2018-10-21T00:07:01.606Z,53.37
2018-10-21T00:09:29.997Z,55.27
2018-10-21T00:11:58.339Z,51.90
2018-10-21T00:14:26.638Z,62.73
2018-10-21T00:16:54.988Z,53.90
2018-10-21T00:19:23.324Z,52.90
2018-10-21T00:21:51.465Z,54.67
2018-10-21T00:24:19.786Z,50.73
2018-10-21T00:26:48.192Z,54.13
2018-10-21T00:29:16.565Z,52.30
2018-10-21T00:31:44.894Z,56.30
2018-10-21T00:34:13.474Z,55.30
2018-10-21T00:36:41.905Z,50.83
2018-10-21T00:39:12.080Z,52.77
2018-10-21T00:41:40.546Z,54.87
2018-10-21T00:44:08.986Z,50.97
2018-10-21T00:46:37.496Z,54.13
2018-10-21T00:49:06.189Z,48.53
2018-10-21T00:51:34.538Z,49.57
2018-10-21T00:54:03.090Z,51.97
2018-10-21T00:56:31.531Z,53.97
2018-10-21T00:58:59.920Z,51.33
2018-10-21T01:01:28.364Z,45.40
2018-10-21T01:03:56.721Z,51.13
2018-10-21T01:06:25.093Z,53.50
2018-10-21T01:08:53.432Z,50.50
2018-10-21T01:11:21.837Z,55.27
2018-10-21T01:13:50.840Z,61.43
2018-10-21T01:16:19.228Z,55.43
2018-10-21T01:18:47.683Z,56.40
2018-10-21T01:21:16.171Z,60.93
2018-10-21T01:23:44.493Z,56.70
2018-10-21T01:26:12.919Z,57.70
2018-10-21T01:28:41.294Z,61.20
2018-10-21T01:31:09.726Z,58.00
2018-10-21T01:33:38.054Z,60.07
2018-10-21T01:36:06.564Z,55.63
2018-10-21T01:38:34.969Z,55.83
2018-10-21T01:41:03.347Z,55.83
2018-10-21T01:43:32.842Z,57.93
2018-10-21T01:46:02.003Z,54.43
2018-10-21T01:48:31.294Z,52.17
2018-10-21T01:50:59.929Z,57.10
2018-10-21T01:53:28.253Z,58.80
2018-10-21T01:55:56.833Z,54.70
2018-10-21T01:58:25.257Z,53.60
2018-10-21T02:00:53.635Z,59.30
2018-10-21T02:03:21.994Z,55.60
2018-10-21T02:05:50.321Z,54.63
2018-10-21T02:08:18.672Z,54.70
2018-10-21T02:10:47.137Z,64.90
2018-10-21T02:13:15.469Z,57.23
2018-10-21T02:15:43.933Z,60.80
2018-10-21T02:18:12.266Z,55.63
2018-10-21T02:20:40.805Z,58.07
2018-10-21T02:23:09.147Z,55.40
2018-10-21T02:25:37.473Z,61.50
2018-10-21T02:28:05.981Z,55.23
2018-10-21T02:30:34.295Z,63.30
2018-10-21T02:33:02.775Z,57.90
2018-10-21T02:35:31.056Z,59.47
2018-10-21T02:37:59.374Z,62.03
2018-10-21T02:41:41.854Z,68.87
2018-10-21T02:44:12.847Z,64.37
2018-10-21T02:46:41.835Z,67.27
2018-10-21T02:49:11.162Z,66.00
2018-10-21T02:51:39.509Z,71.00
2018-10-21T02:54:08.306Z,69.60
2018-10-21T02:56:36.625Z,68.73
2018-10-21T02:59:05.974Z,74.70
2018-10-21T03:01:34.424Z,78.43
2018-10-21T03:04:02.911Z,77.70
2018-10-21T03:06:31.346Z,83.47
2018-10-21T03:08:59.686Z,79.07
2018-10-21T03:11:28.078Z,81.63
2018-10-21T03:13:56.445Z,77.67
2018-10-21T03:16:24.814Z,81.33
2018-10-21T03:18:53.231Z,77.30
2018-10-21T03:21:21.655Z,79.20
2018-10-21T03:23:49.950Z,82.57
2018-10-21T03:26:18.482Z,81.03
2018-10-21T03:28:46.819Z,87.50
2018-10-21T03:31:15.142Z,75.50
2018-10-21T03:33:43.631Z,86.20
2018-10-21T03:36:11.989Z,83.87
2018-10-21T03:38:40.321Z,88.07
2018-10-21T03:41:08.653Z,96.07
2018-10-21T03:43:36.969Z,92.97
2018-10-21T03:46:05.494Z,95.77
2018-10-21T03:48:33.714Z,96.03
2018-10-21T03:51:02.271Z,90.97
2018-10-21T03:53:30.594Z,102.20
2018-10-21T03:55:59.088Z,114.83
2018-10-21T03:58:27.424Z,93.73
2018-10-21T04:00:55.774Z,97.97
2018-10-21T04:03:24.111Z,106.33
2018-10-21T04:05:52.549Z,102.47
2018-10-21T04:08:20.880Z,113.70
2018-10-21T04:10:49.329Z,107.50
2018-10-21T04:13:17.666Z,97.73
2018-10-21T04:15:46.259Z,97.20
2018-10-21T04:18:14.569Z,99.53
2018-10-21T04:20:42.942Z,109.13
2018-10-21T04:23:11.255Z,98.27
2018-10-21T04:25:40.126Z,90.33
2018-10-21T04:28:09.084Z,116.17
2018-10-21T04:30:39.662Z,93.60
2018-10-21T04:33:11.038Z,97.47
2018-10-21T04:35:39.461Z,104.77
2018-10-21T04:38:40.158Z,99.03
2018-10-21T04:41:08.645Z,106.27
2018-10-21T04:43:36.982Z,101.20
2018-10-21T04:46:05.675Z,99.23
2018-10-21T04:48:33.992Z,93.00
2018-10-21T04:51:02.634Z,168.10
2018-10-21T04:53:31.035Z,94.07
2018-10-21T04:55:59.397Z,108.90
2018-10-21T04:58:27.716Z,110.60
2018-10-21T05:00:55.799Z,106.27
2018-10-21T05:03:24.115Z,94.63
2018-10-21T05:05:52.455Z,226.70
2018-10-21T05:08:20.788Z,307.43
2018-10-21T05:10:49.242Z,307.30
2018-10-21T05:13:17.591Z,103.93
2018-10-21T05:15:46.414Z,96.10
2018-10-21T05:18:14.745Z,139.73
2018-10-21T05:20:43.094Z,296.33
2018-10-21T05:23:11.469Z,108.17
2018-10-21T05:25:39.838Z,92.47
2018-10-21T05:28:08.228Z,99.30
2018-10-21T05:30:36.609Z,89.13
2018-10-21T05:33:05.414Z,107.40
2018-10-21T05:35:33.741Z,102.60
2018-10-21T05:38:02.309Z,92.60
2018-10-21T05:40:30.688Z,89.50
2018-10-21T05:42:59.016Z,96.80
2018-10-21T05:45:27.355Z,91.63
2018-10-21T05:47:55.673Z,97.80
2018-10-21T05:50:24.040Z,84.30
2018-10-21T05:52:52.406Z,83.50
2018-10-21T05:55:20.745Z,82.03
2018-10-21T05:57:49.182Z,86.90
2018-10-21T06:00:19.225Z,91.23
2018-10-21T06:02:47.711Z,84.97
2018-10-21T06:05:41.882Z,91.10
2018-10-21T06:08:10.578Z,88.27
2018-10-21T06:10:39.022Z,91.40
2018-10-21T06:13:07.450Z,95.20
2018-10-21T06:15:35.863Z,92.13
2018-10-21T06:18:05.929Z,99.23
2018-10-21T06:20:36.938Z,112.07
2018-10-21T06:23:05.170Z,101.47
2018-10-21T06:25:33.590Z,89.83
2018-10-21T06:28:02.005Z,89.53
2018-10-21T06:30:30.346Z,96.27
2018-10-21T06:32:58.722Z,101.27
2018-10-21T06:35:27.093Z,101.03
2018-10-21T06:37:55.598Z,99.80
2018-10-21T06:40:24.179Z,95.73
2018-10-21T06:42:52.653Z,93.93
2018-10-21T06:45:21.122Z,86.70
2018-10-21T06:47:49.370Z,89.80
2018-10-21T06:50:19.261Z,83.60
2018-10-21T06:52:48.108Z,82.70
2018-10-21T06:55:16.462Z,83.87
2018-10-21T06:57:45.637Z,80.30
2018-10-21T07:00:13.972Z,80.90
2018-10-21T07:02:42.293Z,80.43
2018-10-21T07:05:22.832Z,81.07
2018-10-21T07:07:51.418Z,78.00
2018-10-21T07:10:20.481Z,85.30
2018-10-21T07:12:48.982Z,85.10
2018-10-21T07:15:17.827Z,79.63
2018-10-21T07:17:46.274Z,81.77
2018-10-21T07:20:14.683Z,83.23
2018-10-21T07:22:44.226Z,77.73
2018-10-21T07:25:12.573Z,76.93
2018-10-21T07:27:41.422Z,71.67
2018-10-21T07:30:11.318Z,74.63
2018-10-21T07:32:42.009Z,74.00
2018-10-21T07:35:12.462Z,73.00
2018-10-21T07:37:41.718Z,74.60
2018-10-21T07:40:10.922Z,76.50
2018-10-21T07:42:39.304Z,79.97
2018-10-21T07:45:07.840Z,80.97
2018-10-21T07:47:36.191Z,84.77
2018-10-21T07:50:04.570Z,72.30
2018-10-21T07:52:33.082Z,79.27
2018-10-21T07:55:01.512Z,81.53
2018-10-21T07:57:30.398Z,79.23
2018-10-21T07:59:58.733Z,84.10
2018-10-21T08:02:27.094Z,82.50
2018-10-21T08:04:55.575Z,77.47
2018-10-21T08:07:35.330Z,70.20
2018-10-21T08:10:03.902Z,68.20
2018-10-21T08:12:32.625Z,68.03
2018-10-21T08:15:00.997Z,70.23
2018-10-21T08:17:29.437Z,67.17
2018-10-21T08:19:57.761Z,64.87
2018-10-21T08:22:26.297Z,67.87
2018-10-21T08:24:54.663Z,70.77
2018-10-21T08:27:23.135Z,71.73
2018-10-21T08:29:51.444Z,66.40
2018-10-21T08:32:19.966Z,64.77
2018-10-21T08:34:48.371Z,71.57
2018-10-21T08:37:16.714Z,67.73
2018-10-21T08:39:45.157Z,65.47
2018-10-21T08:42:13.609Z,68.07
2018-10-21T08:44:41.975Z,99.90
2018-10-21T08:47:10.343Z,74.97
2018-10-21T08:49:38.703Z,69.97
2018-10-21T08:52:07.112Z,67.10
2018-10-21T08:54:35.661Z,64.90
2018-10-21T08:57:04.011Z,63.43
2018-10-21T08:59:32.435Z,64.23
2018-10-21T09:02:00.876Z,58.30
2018-10-21T09:04:29.245Z,63.63
2018-10-21T09:06:57.699Z,65.53
2018-10-21T09:09:26.054Z,63.07
2018-10-21T09:11:54.403Z,60.97
2018-10-21T09:14:22.784Z,61.57
2018-10-21T09:16:51.133Z,58.10
2018-10-21T09:19:19.582Z,56.87
2018-10-21T09:21:47.951Z,58.60
2018-10-21T09:24:16.396Z,58.03
2018-10-21T09:26:45.027Z,57.57
2018-10-21T09:29:13.470Z,53.83
2018-10-21T09:31:42.064Z,58.27
2018-10-21T09:34:10.492Z,63.27
2018-10-21T09:36:38.827Z,59.40
2018-10-21T09:39:10.562Z,54.67
2018-10-21T09:41:38.914Z,55.73
2018-10-21T09:44:08.159Z,54.50
2018-10-21T09:46:36.509Z,51.80
2018-10-21T09:49:05.122Z,59.30
2018-10-21T09:51:33.470Z,55.03
2018-10-21T09:54:01.833Z,56.50
2018-10-21T09:56:30.266Z,53.73
2018-10-21T09:58:58.630Z,53.37
2018-10-21T10:01:32.407Z,51.37
2018-10-21T10:04:00.985Z,51.70
2018-10-21T10:06:29.281Z,49.60
2018-10-21T10:08:57.774Z,53.60
2018-10-21T10:11:26.174Z,47.77
2018-10-21T10:13:54.651Z,47.77
2018-10-21T10:16:23.002Z,51.80
2018-10-21T10:18:51.378Z,51.97
2018-10-21T10:21:19.983Z,46.80
2018-10-21T10:23:48.588Z,54.33
2018-10-21T10:26:16.582Z,51.90
2018-10-21T10:28:45.054Z,47.30
2018-10-21T10:31:13.536Z,57.87
2018-10-21T10:33:42.062Z,47.63
2018-10-21T10:36:10.521Z,47.90
2018-10-21T10:38:38.817Z,48.00
2018-10-21T10:41:07.418Z,44.53
2018-10-21T10:43:35.803Z,44.80
2018-10-21T10:46:04.464Z,45.20
2018-10-21T10:48:32.803Z,44.00
2018-10-21T10:51:01.289Z,47.80
2018-10-21T10:53:30.012Z,45.20
2018-10-21T10:55:58.368Z,43.40
2018-10-21T10:58:26.695Z,47.27
2018-10-21T11:00:56.484Z,46.10
2018-10-21T11:03:24.982Z,46.60
2018-10-21T11:05:53.357Z,44.23
2018-10-21T11:08:21.734Z,48.73
2018-10-21T11:10:50.108Z,44.63
2018-10-21T11:13:18.182Z,46.37
2018-10-21T11:15:46.557Z,44.00
2018-10-21T11:18:14.885Z,42.80
2018-10-21T11:20:43.302Z,40.83
2018-10-21T11:23:11.735Z,45.30
2018-10-21T11:25:40.078Z,41.83
2018-10-21T11:28:08.564Z,44.83
2018-10-21T11:30:36.932Z,42.57
2018-10-21T11:33:06.044Z,44.30
2018-10-21T11:35:34.443Z,42.83
2018-10-21T11:38:02.878Z,44.20
2018-10-21T11:40:31.253Z,39.10
2018-10-21T11:42:59.688Z,42.20
2018-10-21T11:45:28.284Z,37.53
2018-10-21T11:47:56.610Z,40.43
2018-10-21T11:50:24.983Z,36.57
2018-10-21T11:52:53.407Z,37.47
2018-10-21T11:55:21.777Z,36.00
2018-10-21T11:57:50.222Z,40.30
2018-10-21T12:00:18.569Z,35.70
2018-10-21T12:02:46.961Z,38.77
2018-10-21T12:05:15.486Z,37.50
2018-10-21T12:07:43.960Z,32.87
2018-10-21T12:10:12.336Z,34.10
2018-10-21T12:12:40.717Z,34.23
2018-10-21T12:15:09.071Z,35.63
2018-10-21T12:17:37.435Z,37.37
2018-10-21T12:20:05.838Z,38.77
2018-10-21T12:22:34.311Z,35.03
2018-10-21T12:25:02.576Z,33.70
2018-10-21T12:27:30.957Z,34.53
2018-10-21T12:29:59.491Z,32.77
2018-10-21T12:32:27.997Z,33.70
2018-10-21T12:34:56.445Z,31.60
2018-10-21T12:37:24.770Z,36.23
2018-10-21T12:39:53.124Z,32.70
2018-10-21T12:42:21.498Z,32.67
2018-10-21T12:44:49.915Z,31.13
2018-10-21T12:47:18.318Z,32.87
2018-10-21T12:49:46.653Z,32.40
2018-10-21T12:52:15.090Z,30.30
2018-10-21T12:54:43.362Z,30.73
2018-10-21T12:57:11.763Z,28.70
2018-10-21T12:59:40.093Z,31.00
2018-10-21T13:02:08.617Z,31.20
2018-10-21T13:04:37.055Z,30.30
2018-10-21T13:07:05.719Z,31.00
2018-10-21T13:09:34.047Z,29.27
2018-10-21T13:12:02.435Z,31.23
2018-10-21T13:14:30.775Z,29.00
2018-10-21T13:16:59.244Z,30.27
2018-10-21T13:19:27.649Z,29.17
2018-10-21T13:21:56.057Z,27.97
2018-10-21T13:24:24.418Z,26.53
2018-10-21T13:26:52.810Z,25.97
2018-10-21T13:29:21.383Z,26.77
2018-10-21T13:31:49.777Z,27.33
2018-10-21T13:34:18.260Z,26.20
2018-10-21T13:36:46.542Z,25.70
2018-10-21T13:39:15.152Z,25.17
2018-10-21T13:41:44.794Z,26.10
2018-10-21T13:44:13.174Z,26.07
2018-10-21T13:46:42.126Z,27.70
2018-10-21T13:49:10.308Z,25.17
2018-10-21T13:51:38.677Z,27.13
2018-10-21T13:54:07.006Z,25.00
2018-10-21T13:56:35.449Z,24.73
2018-10-21T13:59:03.912Z,26.33
2018-10-21T14:01:32.317Z,26.10
2018-10-21T14:04:00.641Z,25.20
2018-10-21T14:06:29.006Z,27.80
2018-10-21T14:08:57.341Z,25.90
2018-10-21T14:11:25.738Z,25.17
2018-10-21T14:13:54.142Z,26.50
2018-10-21T14:16:22.696Z,24.77
2018-10-21T14:18:51.121Z,26.80
2018-10-21T14:21:19.335Z,26.23
2018-10-21T14:23:47.913Z,26.53
2018-10-21T14:26:16.060Z,27.33
2018-10-21T14:28:44.438Z,25.43
2018-10-21T14:31:12.813Z,27.37
2018-10-21T14:33:41.195Z,24.50
2018-10-21T14:36:09.661Z,25.80
2018-10-21T14:38:38.010Z,25.10
2018-10-21T14:41:06.409Z,24.80
2018-10-21T14:43:34.898Z,26.33
2018-10-21T14:46:03.429Z,25.63
2018-10-21T14:48:31.750Z,25.80
2018-10-21T14:51:00.126Z,25.67
2018-10-21T14:53:28.470Z,23.93
2018-10-21T14:55:56.827Z,24.50
2018-10-21T14:58:25.110Z,26.43
2018-10-21T15:00:53.527Z,28.70
2018-10-21T15:03:21.999Z,24.77
2018-10-21T15:05:57.248Z,26.73
2018-10-21T15:08:25.648Z,25.03
2018-10-21T15:10:54.002Z,25.87
2018-10-21T15:13:22.426Z,28.90
2018-10-21T15:15:50.768Z,26.13
2018-10-21T15:18:19.178Z,27.70
2018-10-21T15:20:47.574Z,26.37
2018-10-21T15:23:15.952Z,26.27
2018-10-21T15:25:44.330Z,25.60
2018-10-21T15:28:13.019Z,25.90
2018-10-21T15:30:41.345Z,26.73
2018-10-21T15:33:09.701Z,26.67
2018-10-21T15:35:38.082Z,26.80
2018-10-21T15:38:06.473Z,26.13
2018-10-21T15:40:34.992Z,26.33
2018-10-21T15:43:03.369Z,25.00
2018-10-21T15:45:31.734Z,25.60
2018-10-21T15:48:00.098Z,26.17
2018-10-21T15:50:28.612Z,25.60
2018-10-21T15:52:56.935Z,25.73
2018-10-21T15:55:25.360Z,27.23
2018-10-21T15:57:54.067Z,26.50
2018-10-21T16:00:22.557Z,25.13
2018-10-21T16:02:50.893Z,25.07
2018-10-21T16:05:19.311Z,25.80
2018-10-21T16:07:47.718Z,25.10
2018-10-21T16:10:16.181Z,25.40
2018-10-21T16:12:44.481Z,25.90
2018-10-21T16:15:16.170Z,24.77
2018-10-21T16:17:45.326Z,27.33
2018-10-21T16:20:13.769Z,30.00
2018-10-21T16:22:43.308Z,25.20
2018-10-21T16:25:13.030Z,24.90
2018-10-21T16:27:41.575Z,25.70
2018-10-21T16:30:12.481Z,24.63
2018-10-21T16:32:41.776Z,28.50
2018-10-21T16:35:10.806Z,25.60
2018-10-21T16:37:39.931Z,25.27
2018-10-21T16:40:11.006Z,26.93
2018-10-21T16:42:39.950Z,26.80
2018-10-21T16:45:09.014Z,26.43
2018-10-21T16:47:38.151Z,26.50
2018-10-21T16:50:09.276Z,25.97
2018-10-21T16:52:37.427Z,25.90
2018-10-21T16:55:07.323Z,25.97
2018-10-21T16:57:35.752Z,25.83
2018-10-21T17:00:04.481Z,25.30
2018-10-21T17:02:32.721Z,26.20
2018-10-21T17:05:01.242Z,27.20
2018-10-21T17:07:29.556Z,29.20
2018-10-21T17:09:58.387Z,26.90
2018-10-21T17:12:26.532Z,27.00
2018-10-21T17:14:54.936Z,27.17
2018-10-21T17:17:23.403Z,25.00
2018-10-21T17:19:51.772Z,25.50
2018-10-21T17:22:20.602Z,25.70
2018-10-21T17:24:49.242Z,29.20
2018-10-21T17:27:17.621Z,27.10
2018-10-21T17:29:45.975Z,26.37
2018-10-21T17:32:14.486Z,25.93
2018-10-21T17:34:42.854Z,27.20
2018-10-21T17:37:11.370Z,27.40
2018-10-21T17:39:39.702Z,25.70
2018-10-21T17:42:08.043Z,25.40
2018-10-21T17:44:36.708Z,26.80
2018-10-21T17:47:05.301Z,26.80
2018-10-21T17:49:33.722Z,27.67
2018-10-21T17:52:02.202Z,28.30
2018-10-21T17:54:30.554Z,28.70
2018-10-21T17:57:00.099Z,29.27
2018-10-21T17:59:29.010Z,27.70
2018-10-21T18:01:58.029Z,27.17
2018-10-21T18:04:27.255Z,27.47
2018-10-21T18:06:55.791Z,31.23
2018-10-21T18:09:24.153Z,27.07
2018-10-21T18:11:52.505Z,26.10
2018-10-21T18:14:20.862Z,24.70
2018-10-21T18:16:49.262Z,27.23
2018-10-21T18:19:17.686Z,28.50
2018-10-21T18:21:46.114Z,31.10
2018-10-21T18:24:14.685Z,27.23
2018-10-21T18:26:43.026Z,27.73
2018-10-21T18:29:11.433Z,29.97
2018-10-21T18:31:39.846Z,42.77
2018-10-21T18:34:08.256Z,28.70
2018-10-21T18:36:36.583Z,26.53
2018-10-21T18:39:07.750Z,26.50
2018-10-21T18:41:36.114Z,28.53
2018-10-21T18:44:04.860Z,29.00
2018-10-21T18:46:33.395Z,28.97
2018-10-21T18:49:01.990Z,28.63
2018-10-21T18:51:30.312Z,28.37
2018-10-21T18:53:58.690Z,26.90
2018-10-21T18:56:27.059Z,28.63
2018-10-21T18:58:55.460Z,27.53
2018-10-21T19:01:23.875Z,28.30
2018-10-21T19:03:52.454Z,29.40
2018-10-21T19:06:20.909Z,30.73
2018-10-21T19:08:49.280Z,31.97
2018-10-21T19:11:17.781Z,29.40
2018-10-21T19:13:46.147Z,30.00
2018-10-21T19:16:14.631Z,28.17
2018-10-21T19:18:43.115Z,28.60
2018-10-21T19:21:11.572Z,30.63
2018-10-21T19:23:39.910Z,28.10
2018-10-21T19:26:08.283Z,27.30
2018-10-21T19:28:36.710Z,28.50
2018-10-21T19:31:05.447Z,26.67
2018-10-21T19:33:33.829Z,29.40
2018-10-21T19:36:02.249Z,26.93
2018-10-21T19:38:30.638Z,31.33
2018-10-21T19:40:59.025Z,38.33
2018-10-21T19:43:27.446Z,27.77
2018-10-21T19:45:55.842Z,27.20
2018-10-21T19:48:24.197Z,28.27
2018-10-21T19:50:52.602Z,27.83
2018-10-21T19:53:20.962Z,28.63
2018-10-21T19:55:49.626Z,29.13
2018-10-21T19:58:18.092Z,31.20
2018-10-21T20:00:46.372Z,31.10
2018-10-21T20:03:14.858Z,30.60
2018-10-21T20:05:45.823Z,33.53
2018-10-21T20:08:14.294Z,32.30
2018-10-21T20:10:42.926Z,32.33
2018-10-21T20:13:11.546Z,30.30
2018-10-21T20:15:39.927Z,32.37
2018-10-21T20:18:08.500Z,37.60
2018-10-21T20:20:36.877Z,34.63
2018-10-21T20:23:05.712Z,32.10
2018-10-21T20:25:34.063Z,30.63
2018-10-21T20:28:02.744Z,31.63
2018-10-21T20:30:31.256Z,30.83
2018-10-21T20:32:59.718Z,32.97
2018-10-21T20:35:28.045Z,31.70
2018-10-21T20:37:56.489Z,31.53
2018-10-21T20:40:24.880Z,37.10
2018-10-21T20:42:53.325Z,31.90
2018-10-21T20:45:22.661Z,32.07
2018-10-21T20:47:51.063Z,30.70
2018-10-21T20:50:19.575Z,33.40
2018-10-21T20:52:47.948Z,30.90
2018-10-21T20:55:16.418Z,30.50
2018-10-21T20:57:44.980Z,32.53
2018-10-21T21:00:13.409Z,30.70
2018-10-21T21:02:41.934Z,29.63
2018-10-21T21:05:10.484Z,29.73
2018-10-21T21:07:38.855Z,33.10
2018-10-21T21:10:08.102Z,31.13
2018-10-21T21:12:36.440Z,33.07
2018-10-21T21:15:05.202Z,30.90
2018-10-21T21:17:33.573Z,33.40
2018-10-21T21:20:01.933Z,32.33
2018-10-21T21:22:30.314Z,32.67
2018-10-21T21:24:59.659Z,36.60
2018-10-21T21:27:27.990Z,33.20
2018-10-21T21:29:56.574Z,35.10
2018-10-21T21:32:24.909Z,34.07
2018-10-21T21:34:53.249Z,32.23
2018-10-21T21:37:21.631Z,32.73
2018-10-21T21:39:50.175Z,34.30
2018-10-21T21:42:18.612Z,31.20
2018-10-21T21:44:46.995Z,30.50
2018-10-21T21:47:15.349Z,32.70
2018-10-21T21:49:43.713Z,31.67
2018-10-21T21:52:12.158Z,34.53
2018-10-21T21:54:40.411Z,34.40
2018-10-21T21:57:08.810Z,32.83
2018-10-21T21:59:37.190Z,32.67
2018-10-21T22:02:05.550Z,32.93
2018-10-21T22:04:33.887Z,30.90
2018-10-21T22:07:02.210Z,38.07
2018-10-21T22:09:30.655Z,32.10
2018-10-21T22:11:59.181Z,33.10
2018-10-21T22:14:27.526Z,31.13
2018-10-21T22:16:55.842Z,28.93
2018-10-21T22:19:24.214Z,28.77
2018-10-21T22:21:52.573Z,33.70
2018-10-21T22:24:20.932Z,31.57
2018-10-21T22:26:49.318Z,32.00
2018-10-21T22:29:17.730Z,32.13
2018-10-21T22:31:46.126Z,32.43
2018-10-21T22:34:14.506Z,34.60
2018-10-21T22:36:42.846Z,29.83
2018-10-21T22:39:11.218Z,30.57
2018-10-21T22:41:39.606Z,31.57
2018-10-21T22:44:08.117Z,33.03
2018-10-21T22:46:36.563Z,32.93
2018-10-21T22:49:05.563Z,32.00
2018-10-21T22:51:33.946Z,30.37
2018-10-21T22:54:02.329Z,32.43
2018-10-21T22:56:30.689Z,30.97
2018-10-21T22:58:59.076Z,33.63
2018-10-21T23:01:27.453Z,31.43
2018-10-21T23:03:55.841Z,40.27
2018-10-21T23:06:24.216Z,31.23
2018-10-21T23:08:52.543Z,35.03
2018-10-21T23:11:20.890Z,33.30
2018-10-21T23:13:49.233Z,32.93
2018-10-21T23:16:17.668Z,31.63
2018-10-21T23:18:46.133Z,32.73
2018-10-21T23:21:14.438Z,31.73
2018-10-21T23:23:42.866Z,32.13
2018-10-21T23:26:11.209Z,33.13
2018-10-21T23:28:39.558Z,33.63
2018-10-21T23:31:07.934Z,33.30
2018-10-21T23:33:36.268Z,35.17
2018-10-21T23:36:04.634Z,30.00
2018-10-21T23:38:33.001Z,31.17
2018-10-21T23:41:01.057Z,35.07
2018-10-21T23:43:29.377Z,30.60
2018-10-21T23:45:57.821Z,31.37
2018-10-21T23:48:26.122Z,29.17
2018-10-21T23:50:54.545Z,31.87
2018-10-21T23:53:22.884Z,29.70
2018-10-21T23:55:51.247Z,33.10
2018-10-21T23:58:19.745Z,30.47
